Time;durP1;ratioP1;P1;durP2;ratioP2;P2;SDS_P1;SDS_P2;PMS_P1;PMS_P2;Temp;Humidity;BMP_temperature;BMP_pressure;BME280_temperature;BME280_humidity;BME280_pressure;Samples;Min_cycle;Max_cycle;Signal;HPM_P1;HPM_P2
2021/07/10 00:00:49;;;;;;;9.83;4.10;;;;;;;;;;6187356;23;20001;-60
2021/07/10 00:03:16;;;;;;;5.00;3.50;;;;;;;;;;6186807;23;20459;-61
2021/07/10 00:05:42;;;;;;;6.60;3.70;;;;;;;;;;6186936;23;20005;-60
2021/07/10 00:08:10;;;;;;;6.33;3.80;;;;;;;;;;6187081;23;20001;-61
2021/07/10 00:10:37;;;;;;;7.93;3.53;;;;;;;;;;6186670;23;20012;-60
2021/07/10 00:13:04;;;;;;;5.03;3.03;;;;;;;;;;6186796;23;20303;-61
2021/07/10 00:15:31;;;;;;;5.60;3.30;;;;;;;;;;6186825;23;20012;-60
2021/07/10 00:17:57;;;;;;;16.13;3.70;;;;;;;;;;6186757;23;20341;-60
2021/07/10 00:20:24;;;;;;;7.87;3.13;;;;;;;;;;6186731;23;20033;-60
2021/07/10 00:22:51;;;;;;;9.47;2.90;;;;;;;;;;6186627;23;20005;-60
2021/07/10 00:25:19;;;;;;;7.50;3.27;;;;;;;;;;6186625;23;20401;-60
2021/07/10 00:27:47;;;;;;;6.07;3.10;;;;;;;;;;6186813;23;20420;-61
2021/07/10 00:30:14;;;;;;;14.63;7.20;;;;;;;;;;6187542;23;20016;-61
2021/07/10 00:32:41;;;;;;;8.90;5.23;;;;;;;;;;6186897;23;20011;-61
2021/07/10 00:35:08;;;;;;;5.97;3.63;;;;;;;;;;6187058;23;20008;-61
2021/07/10 00:37:35;;;;;;;9.40;3.87;;;;;;;;;;6186737;23;20008;-61
2021/07/10 00:40:02;;;;;;;6.77;3.60;;;;;;;;;;6186591;23;20001;-61
2021/07/10 00:42:29;;;;;;;6.43;4.30;;;;;;;;;;6186815;23;20373;-61
2021/07/10 00:44:55;;;;;;;13.67;4.67;;;;;;;;;;6186550;23;20036;-60
2021/07/10 00:47:22;;;;;;;5.80;3.83;;;;;;;;;;6186707;23;20120;-60
2021/07/10 00:49:49;;;;;;;12.27;4.70;;;;;;;;;;6186667;23;20011;-61
2021/07/10 00:52:16;;;;;;;8.33;4.73;;;;;;;;;;6160186;23;20056;-60
2021/07/10 00:54:42;;;;;;;8.13;4.30;;;;;;;;;;6186059;23;20008;-60
2021/07/10 00:57:10;;;;;;;9.23;4.70;;;;;;;;;;6186571;23;20360;-60
2021/07/10 00:59:38;;;;;;;8.60;4.60;;;;;;;;;;6186520;23;20432;-61
2021/07/10 01:02:05;;;;;;;8.23;5.20;;;;;;;;;;6186440;23;20008;-60
2021/07/10 01:04:32;;;;;;;6.13;4.10;;;;;;;;;;6186118;23;20020;-61
2021/07/10 01:06:58;;;;;;;6.17;3.90;;;;;;;;;;6186496;23;20051;-60
2021/07/10 01:09:26;;;;;;;4.80;3.20;;;;;;;;;;6186365;23;20086;-60
2021/07/10 01:11:53;;;;;;;5.57;3.43;;;;;;;;;;6186409;23;20001;-60
2021/07/10 01:14:20;;;;;;;8.43;3.93;;;;;;;;;;6186535;23;20008;-60
2021/07/10 01:16:47;;;;;;;4.53;3.07;;;;;;;;;;6186237;23;20128;-61
2021/07/10 01:19:20;;;;;;;4.70;3.07;;;;;;;;;;6186451;23;20005;-60
2021/07/10 01:21:48;;;;;;;8.50;3.40;;;;;;;;;;6186302;23;20001;-61
2021/07/10 01:24:15;;;;;;;6.53;3.97;;;;;;;;;;6185987;23;20440;-60
2021/07/10 01:26:41;;;;;;;5.97;4.13;;;;;;;;;;6186104;23;20380;-60
2021/07/10 01:29:08;;;;;;;9.00;5.20;;;;;;;;;;6186051;23;20097;-60
2021/07/10 01:31:36;;;;;;;7.20;4.03;;;;;;;;;;6186777;23;20017;-60
2021/07/10 01:34:03;;;;;;;9.50;5.13;;;;;;;;;;6185934;23;20012;-60
2021/07/10 01:36:30;;;;;;;5.73;3.80;;;;;;;;;;6186109;23;20005;-60
2021/07/10 01:38:57;;;;;;;10.47;3.87;;;;;;;;;;6186260;23;20001;-60
2021/07/10 01:41:24;;;;;;;8.00;3.97;;;;;;;;;;6186414;23;20095;-60
2021/07/10 01:43:51;;;;;;;5.00;4.00;;;;;;;;;;6186032;23;20075;-60
2021/07/10 01:46:18;;;;;;;5.57;3.50;;;;;;;;;;6186065;23;20358;-60
2021/07/10 01:48:46;;;;;;;7.93;3.93;;;;;;;;;;6185944;23;20009;-60
2021/07/10 01:51:12;;;;;;;8.53;2.60;;;;;;;;;;6185881;23;20076;-60
2021/07/10 01:53:39;;;;;;;4.63;2.80;;;;;;;;;;6185942;23;20005;-60
2021/07/10 01:56:06;;;;;;;4.63;2.67;;;;;;;;;;6186137;23;20001;-60
2021/07/10 01:58:33;;;;;;;5.50;2.50;;;;;;;;;;6186394;23;19997;-60
2021/07/10 02:00:59;;;;;;;5.40;2.80;;;;;;;;;;6185870;23;20310;-60
2021/07/10 02:03:26;;;;;;;7.90;2.57;;;;;;;;;;6185846;23;20337;-60
2021/07/10 02:05:54;;;;;;;7.07;2.50;;;;;;;;;;6185876;23;20310;-60
2021/07/10 02:08:20;;;;;;;5.33;2.70;;;;;;;;;;6185861;23;20448;-60
2021/07/10 02:10:47;;;;;;;4.93;2.50;;;;;;;;;;6185592;23;20009;-60
2021/07/10 02:13:14;;;;;;;5.33;2.70;;;;;;;;;;6185806;23;20025;-60
2021/07/10 02:15:41;;;;;;;14.73;3.30;;;;;;;;;;6185694;23;20020;-60
2021/07/10 02:18:08;;;;;;;11.07;2.90;;;;;;;;;;6185755;23;20326;-60
2021/07/10 02:20:35;;;;;;;17.43;4.60;;;;;;;;;;6186143;23;20005;-60
2021/07/10 02:23:02;;;;;;;7.47;3.00;;;;;;;;;;6185621;23;20425;-60
2021/07/10 02:25:37;;;;;;;6.07;2.80;;;;;;;;;;6185512;23;20048;-60
2021/07/10 02:28:04;;;;;;;6.77;3.73;;;;;;;;;;6185686;23;19997;-60
2021/07/10 02:30:44;;;;;;;6.07;3.30;;;;;;;;;;6186418;23;20429;-61
2021/07/10 02:33:11;;;;;;;10.50;3.30;;;;;;;;;;6185321;23;20013;-60
2021/07/10 02:35:38;;;;;;;6.30;3.00;;;;;;;;;;6185707;23;20001;-60
2021/07/10 02:38:05;;;;;;;8.93;3.20;;;;;;;;;;6185492;23;20310;-60
2021/07/10 02:40:33;;;;;;;8.03;4.87;;;;;;;;;;6185628;23;20372;-60
2021/07/10 02:43:00;;;;;;;8.90;4.60;;;;;;;;;;6185651;23;19997;-60
2021/07/10 02:45:27;;;;;;;13.63;5.70;;;;;;;;;;6185244;23;20013;-60
2021/07/10 02:47:54;;;;;;;10.10;4.43;;;;;;;;;;6185602;23;20306;-60
2021/07/10 02:50:25;;;;;;;9.33;3.30;;;;;;;;;;6185334;23;20025;-60
2021/07/10 02:52:53;;;;;;;8.00;3.73;;;;;;;;;;6185512;23;20432;-60
2021/07/10 02:55:21;;;;;;;7.17;3.90;;;;;;;;;;6185291;23;20088;-60
2021/07/10 02:57:48;;;;;;;7.10;3.77;;;;;;;;;;6185306;23;20433;-60
2021/07/10 03:00:17;;;;;;;14.10;3.97;;;;;;;;;;6185351;23;20007;-60
2021/07/10 03:02:44;;;;;;;11.93;3.90;;;;;;;;;;6185190;23;20447;-60
2021/07/10 03:05:11;;;;;;;11.03;4.07;;;;;;;;;;6185195;23;20017;-60
2021/07/10 03:07:41;;;;;;;10.60;4.07;;;;;;;;;;6185357;23;20005;-60
2021/07/10 03:10:10;;;;;;;11.70;3.90;;;;;;;;;;6185144;23;20049;-60
2021/07/10 03:12:37;;;;;;;7.00;5.13;;;;;;;;;;6185189;23;20333;-60
2021/07/10 03:15:04;;;;;;;10.37;4.60;;;;;;;;;;6185310;23;20016;-60
2021/07/10 03:17:31;;;;;;;8.20;4.63;;;;;;;;;;6185001;23;20059;-60
2021/07/10 03:19:58;;;;;;;8.80;4.33;;;;;;;;;;6185216;23;20007;-60
2021/07/10 03:22:25;;;;;;;8.00;4.40;;;;;;;;;;6185327;23;20425;-60
2021/07/10 03:24:51;;;;;;;9.60;4.00;;;;;;;;;;6185076;23;20013;-60
2021/07/10 03:27:18;;;;;;;8.97;4.50;;;;;;;;;;6185257;23;20062;-60
2021/07/10 03:29:45;;;;;;;12.47;4.77;;;;;;;;;;6185314;23;20005;-60
2021/07/10 03:32:12;;;;;;;8.37;5.13;;;;;;;;;;6185829;22;20013;-60
2021/07/10 03:34:39;;;;;;;9.67;5.23;;;;;;;;;;6185285;23;20417;-60
2021/07/10 03:37:05;;;;;;;7.10;5.70;;;;;;;;;;6184995;23;20096;-60
2021/07/10 03:39:32;;;;;;;7.93;5.57;;;;;;;;;;6185580;23;20001;-60
2021/07/10 03:41:59;;;;;;;15.00;5.27;;;;;;;;;;6185177;23;20008;-60
2021/07/10 03:44:26;;;;;;;8.97;5.30;;;;;;;;;;6184953;23;20062;-60
2021/07/10 03:46:52;;;;;;;14.73;5.63;;;;;;;;;;6185196;23;19998;-60
2021/07/10 03:49:19;;;;;;;7.90;5.67;;;;;;;;;;6185121;23;20025;-60
2021/07/10 03:51:46;;;;;;;10.37;6.80;;;;;;;;;;6185177;23;20073;-60
2021/07/10 03:54:13;;;;;;;10.47;6.60;;;;;;;;;;6184874;23;20329;-60
2021/07/10 03:56:39;;;;;;;8.83;6.37;;;;;;;;;;6185178;23;20043;-60
2021/07/10 03:59:06;;;;;;;9.70;6.40;;;;;;;;;;6185152;23;20012;-60
2021/07/10 04:01:33;;;;;;;14.40;6.83;;;;;;;;;;6185022;23;20002;-60
2021/07/10 04:04:01;;;;;;;14.20;7.57;;;;;;;;;;6184881;23;20015;-60
2021/07/10 04:06:28;;;;;;;10.20;6.87;;;;;;;;;;6185097;23;20433;-60
2021/07/10 04:08:55;;;;;;;11.00;6.10;;;;;;;;;;6184900;23;20028;-60
2021/07/10 04:11:21;;;;;;;11.50;6.47;;;;;;;;;;6185200;23;20374;-60
2021/07/10 04:13:48;;;;;;;8.57;6.37;;;;;;;;;;6184977;23;20005;-60
2021/07/10 04:16:15;;;;;;;13.60;7.10;;;;;;;;;;6185193;23;20005;-60
2021/07/10 04:18:44;;;;;;;9.70;6.43;;;;;;;;;;6184794;23;20013;-60
2021/07/10 04:21:11;;;;;;;9.57;7.27;;;;;;;;;;6185100;23;20076;-60
2021/07/10 04:23:38;;;;;;;10.37;6.80;;;;;;;;;;6184803;23;20013;-60
2021/07/10 04:26:05;;;;;;;11.77;7.07;;;;;;;;;;6184944;23;20424;-60
2021/07/10 04:28:31;;;;;;;13.07;6.67;;;;;;;;;;6184794;23;19997;-60
2021/07/10 04:30:58;;;;;;;14.00;7.77;;;;;;;;;;6187245;23;20008;-60
2021/07/10 04:33:25;;;;;;;10.97;7.70;;;;;;;;;;6186694;23;20333;-60
2021/07/10 04:35:52;;;;;;;11.57;7.47;;;;;;;;;;6160394;23;20012;-60
2021/07/10 04:38:20;;;;;;;15.40;6.87;;;;;;;;;;6186754;23;20076;-60
2021/07/10 04:40:48;;;;;;;16.40;6.90;;;;;;;;;;6186622;23;20008;-60
2021/07/10 04:43:14;;;;;;;12.43;7.93;;;;;;;;;;6186332;23;20005;-60
2021/07/10 04:45:42;;;;;;;10.50;7.03;;;;;;;;;;6186624;23;20013;-60
2021/07/10 04:48:09;;;;;;;9.37;7.20;;;;;;;;;;6186642;23;20080;-60
2021/07/10 04:50:36;;;;;;;11.93;7.30;;;;;;;;;;6186501;23;20004;-60
2021/07/10 04:53:03;;;;;;;12.77;7.13;;;;;;;;;;6186569;23;20001;-60
2021/07/10 04:55:29;;;;;;;8.37;7.10;;;;;;;;;;6186616;23;20008;-60
2021/07/10 04:57:56;;;;;;;14.43;8.00;;;;;;;;;;6186717;23;20009;-60
2021/07/10 05:00:24;;;;;;;15.47;7.53;;;;;;;;;;6186316;23;20036;-60
2021/07/10 05:02:51;;;;;;;11.57;7.87;;;;;;;;;;6186417;23;20001;-60
2021/07/10 05:05:18;;;;;;;9.40;7.20;;;;;;;;;;6186385;23;20067;-60
2021/07/10 05:07:45;;;;;;;12.33;7.63;;;;;;;;;;6186401;23;20001;-60
2021/07/10 05:10:13;;;;;;;14.63;8.03;;;;;;;;;;6186376;23;20486;-60
2021/07/10 05:12:39;;;;;;;8.93;7.83;;;;;;;;;;6159968;23;20008;-60
2021/07/10 05:15:06;;;;;;;10.67;8.20;;;;;;;;;;6186472;23;20001;-60
2021/07/10 05:17:33;;;;;;;10.83;7.60;;;;;;;;;;6186470;23;20010;-60
2021/07/10 05:20:00;;;;;;;12.47;8.13;;;;;;;;;;6186361;23;20364;-60
2021/07/10 05:22:28;;;;;;;11.00;8.40;;;;;;;;;;6186413;23;20036;-59
2021/07/10 05:24:55;;;;;;;9.77;7.70;;;;;;;;;;6186148;23;20008;-60
2021/07/10 05:27:22;;;;;;;10.07;8.40;;;;;;;;;;6186393;23;20025;-60
2021/07/10 05:29:49;;;;;;;15.70;9.00;;;;;;;;;;6186359;23;20009;-60
2021/07/10 05:32:17;;;;;;;14.80;9.03;;;;;;;;;;6187074;23;20013;-60
2021/07/10 05:34:44;;;;;;;13.20;8.37;;;;;;;;;;6186102;23;20368;-60
2021/07/10 05:37:11;;;;;;;12.53;8.80;;;;;;;;;;6186173;23;20388;-60
2021/07/10 05:39:38;;;;;;;11.03;9.17;;;;;;;;;;6186210;23;20035;-60
2021/07/10 05:42:06;;;;;;;14.17;8.77;;;;;;;;;;6185803;23;20012;-59
2021/07/10 05:44:33;;;;;;;12.90;9.50;;;;;;;;;;6186025;23;20009;-60
2021/07/10 05:47:00;;;;;;;12.50;8.67;;;;;;;;;;6185997;23;20051;-59
2021/07/10 05:49:27;;;;;;;10.97;8.67;;;;;;;;;;6186120;23;20005;-60
2021/07/10 05:51:54;;;;;;;10.57;8.77;;;;;;;;;;6159680;23;20437;-59
2021/07/10 05:54:21;;;;;;;16.40;8.67;;;;;;;;;;6185975;23;20080;-59
2021/07/10 05:56:48;;;;;;;17.77;9.47;;;;;;;;;;6185947;23;20364;-59
2021/07/10 05:59:14;;;;;;;10.23;8.50;;;;;;;;;;6185927;23;20012;-59
2021/07/10 06:01:41;;;;;;;10.70;8.53;;;;;;;;;;6185959;23;20012;-59
2021/07/10 06:04:08;;;;;;;13.77;8.70;;;;;;;;;;6185931;23;20045;-59
2021/07/10 06:06:35;;;;;;;16.53;10.43;;;;;;;;;;6186017;23;20004;-59
2021/07/10 06:09:01;;;;;;;12.27;9.80;;;;;;;;;;6185788;23;20009;-60
2021/07/10 06:11:28;;;;;;;10.97;8.43;;;;;;;;;;6185942;23;20416;-59
2021/07/10 06:13:55;;;;;;;14.33;9.83;;;;;;;;;;6185772;23;20028;-59
2021/07/10 06:16:22;;;;;;;15.97;9.77;;;;;;;;;;6185895;23;20001;-59
2021/07/10 06:18:49;;;;;;;13.73;10.57;;;;;;;;;;6185829;23;20016;-59
2021/07/10 06:21:15;;;;;;;14.80;10.50;;;;;;;;;;6185910;23;20005;-59
2021/07/10 06:23:45;;;;;;;13.43;10.17;;;;;;;;;;6185704;23;20001;-59
2021/07/10 06:26:12;;;;;;;11.27;9.13;;;;;;;;;;6185610;23;20006;-59
2021/07/10 06:28:39;;;;;;;13.87;9.70;;;;;;;;;;6185792;23;20009;-59
2021/07/10 06:31:05;;;;;;;12.70;9.50;;;;;;;;;;6186285;23;20043;-60
2021/07/10 06:33:32;;;;;;;11.77;10.27;;;;;;;;;;6185660;23;20301;-59
2021/07/10 06:35:59;;;;;;;16.70;10.67;;;;;;;;;;6185705;23;20303;-59
2021/07/10 06:38:26;;;;;;;15.20;10.50;;;;;;;;;;6185746;23;20095;-59
2021/07/10 06:40:52;;;;;;;14.97;10.60;;;;;;;;;;6185666;23;20011;-59
2021/07/10 06:43:19;;;;;;;12.37;10.47;;;;;;;;;;6185483;23;20001;-59
2021/07/10 06:45:46;;;;;;;15.33;11.33;;;;;;;;;;6185750;23;20009;-60
2021/07/10 06:48:13;;;;;;;13.43;10.80;;;;;;;;;;6185518;23;20047;-60
2021/07/10 06:50:39;;;;;;;20.30;11.17;;;;;;;;;;6185606;23;20148;-60
2021/07/10 06:53:06;;;;;;;11.00;9.60;;;;;;;;;;6185222;23;20072;-60
2021/07/10 06:55:33;;;;;;;13.77;10.40;;;;;;;;;;6185748;23;19997;-60
2021/07/10 06:58:00;;;;;;;14.50;10.50;;;;;;;;;;6185595;23;20011;-59
2021/07/10 07:00:27;;;;;;;13.40;10.17;;;;;;;;;;6159126;23;20001;-60
2021/07/10 07:02:53;;;;;;;16.67;11.03;;;;;;;;;;6185266;23;20479;-59
2021/07/10 07:05:20;;;;;;;15.60;11.60;;;;;;;;;;6185309;23;20451;-59
2021/07/10 07:07:47;;;;;;;13.87;10.93;;;;;;;;;;6159041;23;20325;-59
2021/07/10 07:10:14;;;;;;;13.87;10.03;;;;;;;;;;6185323;23;20028;-59
2021/07/10 07:12:41;;;;;;;10.67;9.20;;;;;;;;;;6185203;23;20001;-59
2021/07/10 07:15:09;;;;;;;14.67;10.77;;;;;;;;;;6185259;23;20016;-59
2021/07/10 07:17:36;;;;;;;13.70;9.13;;;;;;;;;;6158950;23;20381;-59
2021/07/10 07:20:04;;;;;;;14.97;10.30;;;;;;;;;;6159140;23;20001;-59
2021/07/10 07:22:31;;;;;;;13.80;11.67;;;;;;;;;;6185288;23;20504;-59
2021/07/10 07:24:57;;;;;;;17.10;12.13;;;;;;;;;;6185099;23;20016;-59
2021/07/10 07:27:24;;;;;;;11.73;10.50;;;;;;;;;;6185257;23;20001;-59
2021/07/10 07:29:51;;;;;;;14.70;11.67;;;;;;;;;;6185022;23;20005;-59
2021/07/10 07:32:18;;;;;;;18.00;12.00;;;;;;;;;;6185905;22;20040;-59
2021/07/10 07:34:48;;;;;;;14.87;10.80;;;;;;;;;;6185567;23;20024;-59
2021/07/10 07:37:17;;;;;;;18.80;12.63;;;;;;;;;;6184967;23;20001;-59
2021/07/10 07:39:46;;;;;;;16.40;10.97;;;;;;;;;;6185067;23;20008;-59
2021/07/10 07:42:14;;;;;;;13.60;10.80;;;;;;;;;;6185150;23;20084;-59
2021/07/10 07:44:41;;;;;;;16.27;11.90;;;;;;;;;;6184992;23;20384;-59
2021/07/10 07:47:12;;;;;;;15.10;10.80;;;;;;;;;;6185151;23;20024;-59
2021/07/10 07:49:39;;;;;;;12.97;10.50;;;;;;;;;;6184967;23;20009;-59
2021/07/10 07:52:07;;;;;;;15.77;11.50;;;;;;;;;;6185103;23;20016;-59
2021/07/10 07:54:35;;;;;;;14.13;11.70;;;;;;;;;;6185064;23;19998;-59
2021/07/10 07:57:02;;;;;;;13.47;11.10;;;;;;;;;;6185142;23;20028;-59
2021/07/10 07:59:28;;;;;;;14.43;11.33;;;;;;;;;;6184922;23;20443;-59
2021/07/10 08:01:55;;;;;;;15.07;11.03;;;;;;;;;;6185148;23;20052;-59
2021/07/10 08:04:22;;;;;;;16.77;12.20;;;;;;;;;;6186052;23;20459;-59
2021/07/10 08:06:49;;;;;;;15.20;11.07;;;;;;;;;;6187197;23;20005;-59
2021/07/10 08:09:15;;;;;;;18.00;12.17;;;;;;;;;;6187028;23;20051;-59
2021/07/10 08:11:42;;;;;;;17.77;13.37;;;;;;;;;;6186815;23;20005;-59
2021/07/10 08:14:09;;;;;;;16.70;11.77;;;;;;;;;;6187011;23;20004;-59
2021/07/10 08:16:36;;;;;;;18.33;10.83;;;;;;;;;;6186965;23;20067;-59
2021/07/10 08:19:03;;;;;;;16.97;13.73;;;;;;;;;;6187026;23;20001;-59
2021/07/10 08:21:32;;;;;;;18.40;12.27;;;;;;;;;;6187003;23;20008;-59
2021/07/10 08:23:59;;;;;;;14.90;11.10;;;;;;;;;;6186766;23;20012;-59
2021/07/10 08:26:26;;;;;;;17.83;12.37;;;;;;;;;;6186731;23;20005;-59
2021/07/10 08:28:54;;;;;;;16.37;12.47;;;;;;;;;;6187075;23;20080;-59
2021/07/10 08:31:21;;;;;;;12.37;10.40;;;;;;;;;;6187387;23;20433;-59
2021/07/10 08:33:48;;;;;;;16.60;10.87;;;;;;;;;;6186794;23;20183;-59
2021/07/10 08:36:15;;;;;;;17.10;10.40;;;;;;;;;;6186795;23;20475;-59
2021/07/10 08:38:42;;;;;;;12.20;10.83;;;;;;;;;;6186778;23;20005;-59
2021/07/10 08:41:10;;;;;;;12.43;10.40;;;;;;;;;;6186550;23;20005;-59
2021/07/10 08:43:38;;;;;;;16.00;11.20;;;;;;;;;;6160572;23;20499;-59
2021/07/10 08:46:06;;;;;;;14.07;10.77;;;;;;;;;;6186781;23;20132;-59
2021/07/10 08:48:34;;;;;;;12.43;10.07;;;;;;;;;;6186629;23;20336;-59
2021/07/10 08:51:05;;;;;;;14.77;10.87;;;;;;;;;;6187044;23;20012;-59
2021/07/10 08:53:32;;;;;;;13.43;11.00;;;;;;;;;;6186558;23;20007;-59
2021/07/10 08:55:59;;;;;;;16.17;11.37;;;;;;;;;;6186683;23;20005;-59
2021/07/10 08:58:26;;;;;;;13.63;10.57;;;;;;;;;;6186613;23;19997;-59
2021/07/10 09:00:53;;;;;;;11.37;9.70;;;;;;;;;;6186489;23;20332;-59
2021/07/10 09:03:20;;;;;;;10.23;9.13;;;;;;;;;;6186316;23;20031;-59
2021/07/10 09:05:47;;;;;;;14.73;10.23;;;;;;;;;;6186479;23;20093;-59
2021/07/10 09:08:16;;;;;;;11.27;9.30;;;;;;;;;;6186509;23;20054;-59
2021/07/10 09:10:47;;;;;;;14.60;10.13;;;;;;;;;;6186215;23;20009;-59
2021/07/10 09:13:14;;;;;;;11.43;9.20;;;;;;;;;;6186243;23;20016;-59
2021/07/10 09:15:41;;;;;;;11.80;8.53;;;;;;;;;;6185893;23;20001;-59
2021/07/10 09:18:11;;;;;;;13.33;8.90;;;;;;;;;;6186327;23;20357;-59
2021/07/10 09:20:39;;;;;;;11.00;9.23;;;;;;;;;;6186277;23;20136;-59
2021/07/10 09:23:24;;;;;;;11.20;9.47;;;;;;;;;;6186398;23;20492;-59
2021/07/10 09:25:51;;;;;;;10.10;8.82;;;;;;;;;;6186383;23;20452;-59
2021/07/10 09:28:27;;;;;;;10.23;8.77;;;;;;;;;;6186336;23;20009;-59
2021/07/10 09:30:54;;;;;;;11.63;9.57;;;;;;;;;;6187029;23;20015;-59
2021/07/10 09:33:22;;;;;;;14.03;9.90;;;;;;;;;;6186400;23;20052;-59
2021/07/10 09:35:49;;;;;;;11.70;9.83;;;;;;;;;;6186154;23;20035;-59
2021/07/10 09:38:20;;;;;;;14.07;9.47;;;;;;;;;;6159835;23;20005;-59
2021/07/10 09:41:04;;;;;;;12.57;10.83;;;;;;;;;;6186053;23;20425;-59
2021/07/10 09:43:31;;;;;;;11.60;9.63;;;;;;;;;;6186106;23;20005;-59
2021/07/10 09:46:01;;;;;;;10.57;9.27;;;;;;;;;;6186147;23;20016;-59
2021/07/10 09:48:31;;;;;;;12.20;9.73;;;;;;;;;;6185998;23;20001;-59
2021/07/10 09:51:17;;;;;;;9.97;8.97;;;;;;;;;;6186002;23;20321;-59
2021/07/10 09:53:58;;;;;;;15.30;11.23;;;;;;;;;;6185933;23;20068;-59
2021/07/10 09:56:25;;;;;;;14.57;11.30;;;;;;;;;;6185936;23;20005;-59
2021/07/10 09:58:51;;;;;;;11.93;9.97;;;;;;;;;;6186057;23;20425;-59
2021/07/10 10:01:35;;;;;;;12.13;9.77;;;;;;;;;;6186118;23;20084;-59
2021/07/10 10:04:02;;;;;;;13.13;9.90;;;;;;;;;;6185816;23;20032;-59
2021/07/10 10:06:30;;;;;;;16.43;9.73;;;;;;;;;;6185814;23;20004;-59
2021/07/10 10:09:00;;;;;;;11.37;9.00;;;;;;;;;;6185764;23;20005;-59
2021/07/10 10:11:46;;;;;;;11.57;9.50;;;;;;;;;;6185872;23;20012;-59
2021/07/10 10:14:13;;;;;;;11.10;9.00;;;;;;;;;;6185958;23;19997;-59
2021/07/10 10:16:45;;;;;;;16.37;8.90;;;;;;;;;;6185866;23;20035;-59
2021/07/10 10:19:11;;;;;;;12.90;9.83;;;;;;;;;;6185646;23;20028;-59
2021/07/10 10:21:38;;;;;;;12.20;9.83;;;;;;;;;;6185775;23;20016;-59
2021/07/10 10:24:06;;;;;;;11.53;8.27;;;;;;;;;;6185594;23;20385;-59
2021/07/10 10:26:33;;;;;;;11.27;9.13;;;;;;;;;;6185543;23;20006;-59
2021/07/10 10:29:08;;;;;;;11.00;8.47;;;;;;;;;;6185551;23;20364;-59
2021/07/10 10:31:43;;;;;;;11.55;8.57;;;;;;;;;;6187278;23;20333;-59
2021/07/10 10:34:16;;;;;;;11.33;9.03;;;;;;;;;;6185544;23;20016;-59
2021/07/10 10:36:45;;;;;;;11.90;9.07;;;;;;;;;;6185718;23;20376;-59
2021/07/10 10:39:14;;;;;;;10.63;8.33;;;;;;;;;;6185425;23;20059;-59
2021/07/10 10:41:42;;;;;;;14.97;8.00;;;;;;;;;;6185546;23;20340;-59
2021/07/10 10:44:09;;;;;;;14.80;8.83;;;;;;;;;;6185608;23;20012;-59
2021/07/10 10:46:53;;;;;;;18.37;8.87;;;;;;;;;;6185505;23;20076;-59
2021/07/10 10:49:33;;;;;;;20.13;9.10;;;;;;;;;;6185446;23;20444;-59
2021/07/10 10:52:35;;;;;;;12.87;9.77;;;;;;;;;;6185592;23;20440;-59
2021/07/10 10:55:07;;;;;;;13.33;10.90;;;;;;;;;;6185438;23;19997;-59
2021/07/10 10:57:35;;;;;;;12.47;9.63;;;;;;;;;;6185476;23;20433;-59
2021/07/10 11:00:06;;;;;;;12.60;9.50;;;;;;;;;;6185484;23;20032;-59
2021/07/10 11:02:33;;;;;;;15.23;9.93;;;;;;;;;;6185429;23;20001;-59
2021/07/10 11:05:00;;;;;;;11.80;8.97;;;;;;;;;;6185238;23;20025;-59
2021/07/10 11:07:27;;;;;;;15.57;9.73;;;;;;;;;;6185415;23;20004;-59
2021/07/10 11:10:03;;;;;;;11.03;8.70;;;;;;;;;;6185184;23;20005;-59
2021/07/10 11:12:48;;;;;;;17.23;9.90;;;;;;;;;;6185173;23;20008;-59
2021/07/10 11:15:36;;;;;;;13.48;9.52;;;;;;;;;;6185517;23;20080;-59
2021/07/10 11:18:03;;;;;;;12.37;9.67;;;;;;;;;;6185242;23;20005;-59
2021/07/10 11:20:43;;;;;;;12.10;9.40;;;;;;;;;;6185161;23;19997;-59
2021/07/10 11:23:10;;;;;;;11.63;8.90;;;;;;;;;;6185163;23;20417;-59
2021/07/10 11:26:01;;;;;;;13.73;9.53;;;;;;;;;;6185258;23;20041;-59
2021/07/10 11:28:34;;;;;;;14.67;10.40;;;;;;;;;;6185378;23;20029;-59
2021/07/10 11:31:02;;;;;;;13.33;9.30;;;;;;;;;;6184976;23;20337;-59
2021/07/10 11:33:46;;;;;;;14.57;9.20;;;;;;;;;;6185824;22;20334;-59
2021/07/10 11:36:35;;;;;;;15.48;9.20;;;;;;;;;;6185123;23;20416;-59
2021/07/10 11:39:03;;;;;;;12.37;9.07;;;;;;;;;;6185032;23;20384;-59
2021/07/10 11:41:31;;;;;;;14.10;9.63;;;;;;;;;;6185191;23;20020;-59
2021/07/10 11:44:13;;;;;;;13.83;9.40;;;;;;;;;;6185143;23;20063;-59
2021/07/10 11:46:59;;;;;;;11.87;9.57;;;;;;;;;;6185235;23;20009;-59
2021/07/10 11:49:42;;;;;;;13.73;9.40;;;;;;;;;;6185173;23;20405;-59
2021/07/10 11:52:09;;;;;;;16.07;9.40;;;;;;;;;;6185246;23;20005;-59
2021/07/10 11:54:37;;;;;;;14.40;9.20;;;;;;;;;;6185170;23;20008;-59
2021/07/10 11:57:04;;;;;;;11.23;8.50;;;;;;;;;;6185203;23;20009;-59
2021/07/10 11:59:34;;;;;;;11.77;8.43;;;;;;;;;;6184931;23;20012;-59
2021/07/10 12:02:21;;;;;;;12.37;8.50;;;;;;;;;;6158768;23;20452;-59
2021/07/10 12:05:06;;;;;;;10.50;8.23;;;;;;;;;;6185083;23;20009;-59
2021/07/10 12:07:34;;;;;;;15.27;7.80;;;;;;;;;;6185070;23;20008;-59
2021/07/10 12:10:01;;;;;;;11.77;9.10;;;;;;;;;;6184838;23;20429;-59
2021/07/10 12:12:28;;;;;;;13.57;8.70;;;;;;;;;;6185007;23;20001;-59
2021/07/10 12:14:58;;;;;;;13.10;8.67;;;;;;;;;;6185117;23;20076;-59
2021/07/10 12:17:26;;;;;;;11.67;8.17;;;;;;;;;;6184901;23;20084;-59
2021/07/10 12:19:53;;;;;;;9.60;7.93;;;;;;;;;;6185043;23;20001;-59
2021/07/10 12:22:21;;;;;;;11.73;8.80;;;;;;;;;;6158577;23;20451;-59
2021/07/10 12:24:48;;;;;;;13.97;9.03;;;;;;;;;;6184751;23;20139;-59
2021/07/10 12:27:16;;;;;;;10.53;8.03;;;;;;;;;;6185078;23;20464;-59
2021/07/10 12:29:53;;;;;;;17.33;7.87;;;;;;;;;;6185073;23;20009;-59
2021/07/10 12:32:19;;;;;;;15.87;8.90;;;;;;;;;;6185633;23;20023;-59
2021/07/10 12:34:50;;;;;;;13.27;8.37;;;;;;;;;;6184891;23;20036;-59
2021/07/10 12:37:27;;;;;;;12.53;9.77;;;;;;;;;;6184987;23;20001;-59
2021/07/10 12:40:04;;;;;;;14.07;8.77;;;;;;;;;;6184929;23;19997;-59
2021/07/10 12:42:31;;;;;;;15.20;8.97;;;;;;;;;;6184918;23;20001;-59
2021/07/10 12:44:57;;;;;;;25.90;9.47;;;;;;;;;;6184939;23;20012;-59
2021/07/10 12:47:25;;;;;;;15.90;10.07;;;;;;;;;;6185259;23;19997;-59
2021/07/10 12:49:56;;;;;;;12.97;9.13;;;;;;;;;;6184956;23;20432;-59
2021/07/10 12:52:45;;;;;;;20.23;10.23;;;;;;;;;;6186439;23;20008;-59
2021/07/10 12:55:16;;;;;;;15.73;10.43;;;;;;;;;;6186727;23;20029;-59
2021/07/10 12:58:02;;;;;;;13.33;9.90;;;;;;;;;;6186615;23;20001;-59
2021/07/10 13:00:31;;;;;;;19.90;10.00;;;;;;;;;;6186618;23;20012;-59
2021/07/10 13:02:59;;;;;;;13.20;9.97;;;;;;;;;;6186593;23;20008;-59
2021/07/10 13:05:36;;;;;;;13.33;11.20;;;;;;;;;;6186419;23;20492;-59
2021/07/10 13:08:13;;;;;;;14.23;11.53;;;;;;;;;;6186603;23;20001;-59
2021/07/10 13:10:41;;;;;;;21.83;11.90;;;;;;;;;;6186373;23;20001;-59
2021/07/10 13:13:14;;;;;;;14.20;11.30;;;;;;;;;;6186606;23;20130;-59
2021/07/10 13:15:46;;;;;;;14.93;10.90;;;;;;;;;;6160190;23;20016;-59
2021/07/10 13:18:15;;;;;;;15.67;10.30;;;;;;;;;;6186672;23;20008;-59
2021/07/10 13:20:46;;;;;;;13.17;10.03;;;;;;;;;;6186415;23;20056;-59
2021/07/10 13:23:26;;;;;;;16.37;11.47;;;;;;;;;;6186514;23;20048;-59
2021/07/10 13:25:54;;;;;;;13.60;10.43;;;;;;;;;;6186325;23;20005;-59
2021/07/10 13:28:35;;;;;;;18.47;13.10;;;;;;;;;;6186456;23;20376;-59
2021/07/10 13:31:10;;;;;;;18.57;13.80;;;;;;;;;;6186296;23;20005;-59
2021/07/10 13:33:37;;;;;;;21.13;13.93;;;;;;;;;;6187071;22;20021;-59
2021/07/10 13:36:13;;;;;;;16.63;13.03;;;;;;;;;;6186328;23;20001;-59
2021/07/10 13:38:41;;;;;;;16.67;13.17;;;;;;;;;;6186280;23;20005;-59
2021/07/10 13:41:12;;;;;;;21.13;15.20;;;;;;;;;;6186300;23;20004;-59
2021/07/10 13:43:40;;;;;;;17.20;13.50;;;;;;;;;;6186162;23;20009;-59
2021/07/10 13:46:10;;;;;;;17.17;12.73;;;;;;;;;;6186360;23;20059;-59
2021/07/10 13:48:37;;;;;;;36.57;12.70;;;;;;;;;;6186055;23;20127;-60
2021/07/10 13:51:05;;;;;;;14.33;11.67;;;;;;;;;;6186188;23;19997;-60
2021/07/10 13:53:32;;;;;;;14.03;11.37;;;;;;;;;;6186289;23;20005;-60
2021/07/10 13:56:20;;;;;;;14.87;11.97;;;;;;;;;;6186272;23;20013;-60
2021/07/10 13:59:03;;;;;;;13.23;11.37;;;;;;;;;;6161887;23;20001;-60
2021/07/10 14:01:31;;;;;;;16.90;10.23;;;;;;;;;;6185971;23;20596;-60
2021/07/10 14:04:16;;;;;;;13.97;10.63;;;;;;;;;;6185945;23;20028;-60
2021/07/10 14:06:43;;;;;;;12.20;10.82;;;;;;;;;;6161389;23;20009;-60
2021/07/10 14:09:10;;;;;;;11.50;9.87;;;;;;;;;;6185893;23;20008;-60
2021/07/10 14:11:36;;;;;;;13.30;8.90;;;;;;;;;;6185812;23;20009;-60
2021/07/10 14:14:03;;;;;;;12.10;9.23;;;;;;;;;;6185978;23;20008;-60
2021/07/10 14:16:33;;;;;;;10.30;8.87;;;;;;;;;;6185938;23;20037;-60
2021/07/10 14:19:00;;;;;;;9.53;8.53;;;;;;;;;;6185775;23;20059;-60
2021/07/10 14:21:27;;;;;;;13.80;8.63;;;;;;;;;;6185917;23;20333;-60
2021/07/10 14:23:54;;;;;;;9.77;8.40;;;;;;;;;;6185671;23;20084;-60
2021/07/10 14:26:21;;;;;;;26.53;10.80;;;;;;;;;;6186051;23;20012;-60
2021/07/10 14:28:47;;;;;;;9.87;8.87;;;;;;;;;;6185985;23;20059;-60
2021/07/10 14:31:14;;;;;;;11.07;7.33;;;;;;;;;;6186088;23;20005;-60
2021/07/10 14:33:41;;;;;;;9.47;7.67;;;;;;;;;;6186567;22;20017;-60
2021/07/10 14:36:08;;;;;;;11.60;7.33;;;;;;;;;;6186029;23;20016;-61
2021/07/10 14:38:35;;;;;;;11.27;7.07;;;;;;;;;;6185829;23;20005;-61